Calumet — WDE3568 — position and weather

sailwx.info

Track history (hours):
 
Tides and Currents Weather Stations Pressure Air Temp Water Temp Dewpoint Dewpoint Depression Visibility Wind Speed Wind Dir Waves Ship Positions

Calumet

Owner: Grand River Navigation Company, Traverse City, MI. More information available from US FCC via Universal Licensing System and Coast Guard Vessel Documentation Center.

Last reported at 2014-Nov-26 09:28 UTC. Time now 2014-Nov-26 10:05 UTC.
Position N 45°57' W 085°52'.

Length 192 m; draft 6.3 m.

Type: Cargo ship. MMSI: 367132630.

Date/timePositionNaut miles runAvg speedWind from/ knotsBaromVisibWave heightAir tempDewpointWater temp
2014-Nov-26 09:28N 45°57' W 085°52'0 0.0
2014-Nov-26 08:33N 45°57' W 085°52'0 0.0
2014-Nov-26 07:33N 45°57' W 085°52'0 0.0
2014-Nov-26 06:29N 45°57' W 085°52'0 0.0
2014-Nov-26 04:33N 45°57' W 085°52'0 0.0
2014-Nov-26 03:33N 45°57' W 085°52'1 0.8
2014-Nov-26 02:25N 45°56' W 085°52'6 7.5
2014-Nov-26 01:33N 45°50' W 085°57'8 8.0
2014-Nov-26 00:33N 45°45' W 086°05'122 8.4
2014-Nov-25 10:00N 43°54' W 087°18'47 2.1 300 / 281010.1 2.2 -0.5
2014-Nov-24 12:00N 44°12' W 086°18'   250 / 10978.6 0.1 11.1
Track history (hours):
 
Tides and Currents Weather Stations Pressure Air Temp Water Temp Dewpoint Dewpoint Depression Visibility Wind Speed Wind Dir Waves Ship Positions

Calumet

Owner: Grand River Navigation Company, Traverse City, MI. More information available from US FCC via Universal Licensing System and Coast Guard Vessel Documentation Center.

Last reported at 2014-Nov-26 09:28 UTC. Time now 2014-Nov-26 10:05 UTC.
Position N 45°57' W 085°52'.

Length 192 m; draft 6.3 m.

Type: Cargo ship. MMSI: 367132630.

Date/timePositionNaut miles runAvg speedWind from/ knotsBaromVisibWave heightAir tempDewpointWater temp
2014-Nov-26 09:28N 45°57' W 085°52'0 0.0
2014-Nov-26 08:33N 45°57' W 085°52'0 0.0
2014-Nov-26 07:33N 45°57' W 085°52'0 0.0
2014-Nov-26 06:29N 45°57' W 085°52'0 0.0
2014-Nov-26 04:33N 45°57' W 085°52'0 0.0
2014-Nov-26 03:33N 45°57' W 085°52'1 0.8
2014-Nov-26 02:25N 45°56' W 085°52'6 7.5
2014-Nov-26 01:33N 45°50' W 085°57'8 8.0
2014-Nov-26 00:33N 45°45' W 086°05'122 8.4
2014-Nov-25 10:00N 43°54' W 087°18'47 2.1 300 / 281010.1 2.2 -0.5
2014-Nov-24 12:00N 44°12' W 086°18'   250 / 10978.6 0.1 11.1

Dump ship's entire track history